sensor_id;sensor_type;location;lat;lon;timestamp;pressure;altitude;pressure_sealevel;temperature;humidity
42847;BME280;28495;49.916;14.536;2022-09-30T00:00:28;96019.66;;;9.93;65.42
42847;BME280;28495;49.916;14.536;2022-09-30T00:06:07;96028.03;;;10.04;66.47
42847;BME280;28495;49.916;14.536;2022-09-30T00:11:31;96029.94;;;10.37;66.61
42847;BME280;28495;49.916;14.536;2022-09-30T00:16:53;96031.09;;;10.34;65.77
42847;BME280;28495;49.916;14.536;2022-09-30T00:22:14;96035.09;;;10.29;65.63
42847;BME280;28495;49.916;14.536;2022-09-30T00:27:35;96035.03;;;10.39;66.46
42847;BME280;28495;49.916;14.536;2022-09-30T00:32:58;96023.00;;;10.46;66.33
42847;BME280;28495;49.916;14.536;2022-09-30T00:38:19;96029.59;;;10.32;66.25
42847;BME280;28495;49.916;14.536;2022-09-30T00:43:42;96026.41;;;10.38;66.36
42847;BME280;28495;49.916;14.536;2022-09-30T00:49:11;96038.38;;;10.31;66.30
42847;BME280;28495;49.916;14.536;2022-09-30T00:54:34;96026.00;;;10.25;65.89
42847;BME280;28495;49.916;14.536;2022-09-30T00:59:55;96027.09;;;10.22;65.93
42847;BME280;28495;49.916;14.536;2022-09-30T01:05:16;96030.81;;;10.11;66.28
42847;BME280;28495;49.916;14.536;2022-09-30T01:10:37;96032.47;;;10.20;66.54
42847;BME280;28495;49.916;14.536;2022-09-30T01:21:40;96041.47;;;10.26;66.08
42847;BME280;28495;49.916;14.536;2022-09-30T01:27:22;96036.31;;;10.34;66.69
42847;BME280;28495;49.916;14.536;2022-09-30T01:38:45;96041.19;;;10.03;65.90
42847;BME280;28495;49.916;14.536;2022-09-30T01:49:46;96057.94;;;10.00;66.39
42847;BME280;28495;49.916;14.536;2022-09-30T01:55:24;96067.69;;;9.98;66.26
42847;BME280;28495;49.916;14.536;2022-09-30T02:00:49;96068.50;;;9.99;66.88
42847;BME280;28495;49.916;14.536;2022-09-30T02:06:18;96082.91;;;9.85;66.11
42847;BME280;28495;49.916;14.536;2022-09-30T02:11:40;96081.06;;;9.77;66.34
42847;BME280;28495;49.916;14.536;2022-09-30T02:17:19;96087.06;;;9.51;66.33
42847;BME280;28495;49.916;14.536;2022-09-30T02:22:55;96078.75;;;9.29;66.31
42847;BME280;28495;49.916;14.536;2022-09-30T02:28:24;96085.94;;;9.18;67.09
42847;BME280;28495;49.916;14.536;2022-09-30T02:33:51;96087.53;;;9.10;66.90
42847;BME280;28495;49.916;14.536;2022-09-30T02:39:21;96094.03;;;8.96;67.01
42847;BME280;28495;49.916;14.536;2022-09-30T02:44:50;96087.44;;;9.02;67.60
42847;BME280;28495;49.916;14.536;2022-09-30T02:50:35;96089.59;;;9.07;67.68
42847;BME280;28495;49.916;14.536;2022-09-30T02:56:11;96106.09;;;9.15;68.13
42847;BME280;28495;49.916;14.536;2022-09-30T03:01:34;96111.69;;;9.21;67.80
42847;BME280;28495;49.916;14.536;2022-09-30T03:06:55;96106.47;;;9.21;67.88
42847;BME280;28495;49.916;14.536;2022-09-30T03:12:21;96110.56;;;9.23;67.78
42847;BME280;28495;49.916;14.536;2022-09-30T03:23:37;96117.78;;;9.29;68.13
42847;BME280;28495;49.916;14.536;2022-09-30T03:40:26;96115.97;;;9.66;68.51
42847;BME280;28495;49.916;14.536;2022-09-30T03:45:57;96121.63;;;9.61;67.67
42847;BME280;28495;49.916;14.536;2022-09-30T03:51:21;96125.22;;;9.60;67.99
42847;BME280;28495;49.916;14.536;2022-09-30T03:56:44;96126.84;;;9.61;68.13
42847;BME280;28495;49.916;14.536;2022-09-30T04:02:05;96129.44;;;9.61;68.01
42847;BME280;28495;49.916;14.536;2022-09-30T04:07:30;96125.97;;;9.53;68.23
42847;BME280;28495;49.916;14.536;2022-09-30T04:12:52;96132.22;;;9.60;68.14
42847;BME280;28495;49.916;14.536;2022-09-30T04:18:14;96133.19;;;9.59;68.27
42847;BME280;28495;49.916;14.536;2022-09-30T04:23:35;96132.09;;;9.70;68.30
42847;BME280;28495;49.916;14.536;2022-09-30T04:28:57;96131.19;;;9.97;68.50
42847;BME280;28495;49.916;14.536;2022-09-30T04:34:18;96141.97;;;9.84;68.03
42847;BME280;28495;49.916;14.536;2022-09-30T04:39:39;96143.56;;;9.77;67.92
42847;BME280;28495;49.916;14.536;2022-09-30T04:45:00;96148.31;;;9.82;68.44
42847;BME280;28495;49.916;14.536;2022-09-30T04:50:22;96159.25;;;9.85;68.09
42847;BME280;28495;49.916;14.536;2022-09-30T04:55:44;96157.78;;;9.83;68.09
42847;BME280;28495;49.916;14.536;2022-09-30T05:01:07;96163.34;;;9.88;68.15
42847;BME280;28495;49.916;14.536;2022-09-30T05:06:28;96169.06;;;9.91;67.92
42847;BME280;28495;49.916;14.536;2022-09-30T05:11:48;96183.22;;;9.89;68.04
42847;BME280;28495;49.916;14.536;2022-09-30T05:17:09;96186.59;;;10.07;68.77
42847;BME280;28495;49.916;14.536;2022-09-30T05:22:30;96178.56;;;10.72;70.61
42847;BME280;28495;49.916;14.536;2022-09-30T05:27:50;96183.03;;;10.53;68.19
42847;BME280;28495;49.916;14.536;2022-09-30T05:33:12;96188.66;;;10.22;67.61
42847;BME280;28495;49.916;14.536;2022-09-30T05:38:34;96197.88;;;9.90;67.97
42847;BME280;28495;49.916;14.536;2022-09-30T05:43:59;96206.34;;;9.74;68.29
42847;BME280;28495;49.916;14.536;2022-09-30T05:49:20;96211.94;;;9.79;68.48
42847;BME280;28495;49.916;14.536;2022-09-30T05:54:42;96211.72;;;9.90;68.65
42847;BME280;28495;49.916;14.536;2022-09-30T06:00:05;96213.72;;;9.97;68.39
42847;BME280;28495;49.916;14.536;2022-09-30T06:05:30;96222.66;;;9.94;68.41
42847;BME280;28495;49.916;14.536;2022-09-30T06:10:51;96232.69;;;9.71;68.55
42847;BME280;28495;49.916;14.536;2022-09-30T06:16:12;96238.63;;;9.45;68.18
42847;BME280;28495;49.916;14.536;2022-09-30T06:21:33;96246.13;;;9.48;69.04
42847;BME280;28495;49.916;14.536;2022-09-30T06:26:54;96256.00;;;9.72;69.25
42847;BME280;28495;49.916;14.536;2022-09-30T06:32:15;96260.91;;;9.94;68.88
42847;BME280;28495;49.916;14.536;2022-09-30T06:37:37;96266.84;;;10.04;68.87
42847;BME280;28495;49.916;14.536;2022-09-30T06:42:58;96276.16;;;10.25;69.22
42847;BME280;28495;49.916;14.536;2022-09-30T06:48:20;96273.41;;;10.26;68.72
42847;BME280;28495;49.916;14.536;2022-09-30T06:53:58;96284.72;;;10.35;68.83
42847;BME280;28495;49.916;14.536;2022-09-30T06:59:19;96284.69;;;10.53;69.27
42847;BME280;28495;49.916;14.536;2022-09-30T07:04:41;96275.47;;;10.59;68.83
42847;BME280;28495;49.916;14.536;2022-09-30T07:10:03;96283.56;;;11.43;71.40
42847;BME280;28495;49.916;14.536;2022-09-30T07:15:24;96278.97;;;11.96;69.49
42847;BME280;28495;49.916;14.536;2022-09-30T07:20:52;96286.97;;;11.86;70.26
42847;BME280;28495;49.916;14.536;2022-09-30T07:26:19;96294.44;;;11.73;68.28
42847;BME280;28495;49.916;14.536;2022-09-30T07:31:39;96301.66;;;11.36;67.83
42847;BME280;28495;49.916;14.536;2022-09-30T07:37:01;96301.34;;;11.39;69.38
42847;BME280;28495;49.916;14.536;2022-09-30T07:42:24;96310.78;;;11.75;71.31
42847;BME280;28495;49.916;14.536;2022-09-30T07:47:46;96298.91;;;11.97;69.34
42847;BME280;28495;49.916;14.536;2022-09-30T07:53:13;96294.25;;;12.34;70.97
42847;BME280;28495;49.916;14.536;2022-09-30T07:58:34;96311.22;;;12.79;70.16
42847;BME280;28495;49.916;14.536;2022-09-30T08:03:57;96314.97;;;12.93;70.12
42847;BME280;28495;49.916;14.536;2022-09-30T08:09:23;96325.97;;;12.47;67.69
42847;BME280;28495;49.916;14.536;2022-09-30T08:14:44;96337.06;;;12.16;67.14
42847;BME280;28495;49.916;14.536;2022-09-30T08:20:06;96337.69;;;12.02;67.70
42847;BME280;28495;49.916;14.536;2022-09-30T08:25:33;96335.88;;;12.02;67.56
42847;BME280;28495;49.916;14.536;2022-09-30T08:30:54;96344.66;;;11.93;67.56
42847;BME280;28495;49.916;14.536;2022-09-30T08:36:17;96336.47;;;11.96;67.74
42847;BME280;28495;49.916;14.536;2022-09-30T08:53:45;96372.72;;;11.91;66.97
42847;BME280;28495;49.916;14.536;2022-09-30T09:04:41;96388.72;;;11.96;67.62
42847;BME280;28495;49.916;14.536;2022-09-30T09:16:01;96403.69;;;12.12;67.52
42847;BME280;28495;49.916;14.536;2022-09-30T09:21:52;96410.25;;;12.25;67.80
42847;BME280;28495;49.916;14.536;2022-09-30T09:27:35;96396.75;;;12.71;67.92
42847;BME280;28495;49.916;14.536;2022-09-30T09:33:11;96398.72;;;12.77;67.61
42847;BME280;28495;49.916;14.536;2022-09-30T09:38:39;96405.44;;;12.71;67.16
42847;BME280;28495;49.916;14.536;2022-09-30T09:44:23;96394.31;;;12.69;67.02
42847;BME280;28495;49.916;14.536;2022-09-30T09:55:20;96401.00;;;12.55;66.61
42847;BME280;28495;49.916;14.536;2022-09-30T10:00:42;96411.16;;;12.67;66.79
42847;BME280;28495;49.916;14.536;2022-09-30T10:06:08;96412.63;;;12.69;66.41
42847;BME280;28495;49.916;14.536;2022-09-30T10:11:29;96421.44;;;12.68;66.25
42847;BME280;28495;49.916;14.536;2022-09-30T10:16:57;96430.44;;;12.74;65.84
42847;BME280;28495;49.916;14.536;2022-09-30T10:22:26;96425.88;;;12.84;65.81
42847;BME280;28495;49.916;14.536;2022-09-30T10:27:51;96426.19;;;13.39;68.11
42847;BME280;28495;49.916;14.536;2022-09-30T10:33:18;96427.72;;;13.81;66.28
42847;BME280;28495;49.916;14.536;2022-09-30T10:39:05;96421.41;;;14.07;66.58
42847;BME280;28495;49.916;14.536;2022-09-30T10:44:27;96437.69;;;13.94;64.09
42847;BME280;28495;49.916;14.536;2022-09-30T10:50:11;96441.22;;;13.70;63.79
42847;BME280;28495;49.916;14.536;2022-09-30T10:55:41;96434.34;;;13.69;64.02
42847;BME280;28495;49.916;14.536;2022-09-30T11:01:29;96433.44;;;13.85;63.61
42847;BME280;28495;49.916;14.536;2022-09-30T11:07:00;96424.78;;;13.84;62.78
42847;BME280;28495;49.916;14.536;2022-09-30T11:12:43;96429.63;;;14.04;62.91
42847;BME280;28495;49.916;14.536;2022-09-30T11:18:16;96423.47;;;14.20;63.32
42847;BME280;28495;49.916;14.536;2022-09-30T11:23:48;96430.69;;;14.26;62.78
42847;BME280;28495;49.916;14.536;2022-09-30T11:46:40;96428.34;;;14.63;61.87
42847;BME280;28495;49.916;14.536;2022-09-30T12:03:45;96418.31;;;14.90;60.37
42847;BME280;28495;49.916;14.536;2022-09-30T12:15:04;96422.63;;;15.06;60.15
42847;BME280;28495;49.916;14.536;2022-09-30T12:20:31;96416.44;;;14.99;60.15
42847;BME280;28495;49.916;14.536;2022-09-30T12:25:58;96414.72;;;14.91;59.28
42847;BME280;28495;49.916;14.536;2022-09-30T12:37:04;96419.09;;;14.67;58.98
42847;BME280;28495;49.916;14.536;2022-09-30T12:48:30;96415.25;;;14.86;58.68
42847;BME280;28495;49.916;14.536;2022-09-30T12:59:54;96430.66;;;14.89;58.75
42847;BME280;28495;49.916;14.536;2022-09-30T13:10:55;96419.38;;;15.04;58.63
42847;BME280;28495;49.916;14.536;2022-09-30T13:27:41;96437.66;;;14.97;58.79
42847;BME280;28495;49.916;14.536;2022-09-30T13:38:37;96439.75;;;15.02;58.41
42847;BME280;28495;49.916;14.536;2022-09-30T13:44:11;96447.44;;;15.03;58.15
42847;BME280;28495;49.916;14.536;2022-09-30T13:49:42;96428.34;;;15.09;58.37
42847;BME280;28495;49.916;14.536;2022-09-30T13:55:14;96438.91;;;15.01;58.07
42847;BME280;28495;49.916;14.536;2022-09-30T14:06:20;96412.28;;;14.89;58.16
42847;BME280;28495;49.916;14.536;2022-09-30T14:23:02;96437.47;;;14.99;58.35
42847;BME280;28495;49.916;14.536;2022-09-30T14:28:32;96423.78;;;15.03;57.96
42847;BME280;28495;49.916;14.536;2022-09-30T14:33:57;96426.59;;;15.02;57.93
42847;BME280;28495;49.916;14.536;2022-09-30T14:39:23;96430.50;;;15.06;57.74
42847;BME280;28495;49.916;14.536;2022-09-30T14:44:45;96425.50;;;14.96;57.38
42847;BME280;28495;49.916;14.536;2022-09-30T14:50:14;96422.25;;;14.94;57.02
42847;BME280;28495;49.916;14.536;2022-09-30T14:55:37;96425.84;;;14.93;56.98
42847;BME280;28495;49.916;14.536;2022-09-30T15:06:31;96440.38;;;14.81;56.50
42847;BME280;28495;49.916;14.536;2022-09-30T15:11:54;96458.13;;;14.78;57.14
42847;BME280;28495;49.916;14.536;2022-09-30T15:17:19;96452.22;;;14.76;57.70
42847;BME280;28495;49.916;14.536;2022-09-30T15:22:41;96446.22;;;14.68;57.28
42847;BME280;28495;49.916;14.536;2022-09-30T15:28:02;96455.38;;;14.63;57.33
42847;BME280;28495;49.916;14.536;2022-09-30T15:33:25;96461.50;;;14.56;57.80
42847;BME280;28495;49.916;14.536;2022-09-30T15:38:50;96478.03;;;14.33;57.81
42847;BME280;28495;49.916;14.536;2022-09-30T15:44:27;96480.78;;;14.31;58.23
42847;BME280;28495;49.916;14.536;2022-09-30T15:49:56;96474.94;;;14.21;58.81
42847;BME280;28495;49.916;14.536;2022-09-30T15:55:38;96474.00;;;14.14;58.74
42847;BME280;28495;49.916;14.536;2022-09-30T16:07:05;96486.66;;;14.02;59.03
42847;BME280;28495;49.916;14.536;2022-09-30T16:12:31;96491.97;;;13.69;58.69
42847;BME280;28495;49.916;14.536;2022-09-30T16:17:54;96502.94;;;13.39;58.67
42847;BME280;28495;49.916;14.536;2022-09-30T16:23:37;96521.28;;;13.39;59.38
42847;BME280;28495;49.916;14.536;2022-09-30T16:28:58;96517.88;;;13.47;59.58
42847;BME280;28495;49.916;14.536;2022-09-30T16:34:30;96515.56;;;13.52;59.58
42847;BME280;28495;49.916;14.536;2022-09-30T16:40:05;96517.38;;;13.44;59.30
42847;BME280;28495;49.916;14.536;2022-09-30T16:45:30;96523.09;;;13.39;59.57
42847;BME280;28495;49.916;14.536;2022-09-30T16:50:59;96519.97;;;13.35;59.64
42847;BME280;28495;49.916;14.536;2022-09-30T16:56:23;96523.41;;;13.27;59.48
42847;BME280;28495;49.916;14.536;2022-09-30T17:01:47;96515.41;;;13.21;59.45
42847;BME280;28495;49.916;14.536;2022-09-30T17:07:10;96533.53;;;12.98;59.50
42847;BME280;28495;49.916;14.536;2022-09-30T17:12:33;96539.41;;;12.91;59.74
42847;BME280;28495;49.916;14.536;2022-09-30T17:17:55;96550.53;;;12.85;59.73
42847;BME280;28495;49.916;14.536;2022-09-30T17:23:15;96553.47;;;12.82;60.05
42847;BME280;28495;49.916;14.536;2022-09-30T17:28:36;96557.97;;;12.72;59.93
42847;BME280;28495;49.916;14.536;2022-09-30T17:33:57;96566.00;;;12.62;59.91
42847;BME280;28495;49.916;14.536;2022-09-30T17:39:17;96569.06;;;12.57;59.85
42847;BME280;28495;49.916;14.536;2022-09-30T17:44:38;96565.44;;;12.50;60.28
42847;BME280;28495;49.916;14.536;2022-09-30T17:49:59;96567.38;;;12.40;60.51
42847;BME280;28495;49.916;14.536;2022-09-30T17:55:22;96566.19;;;12.34;60.29
42847;BME280;28495;49.916;14.536;2022-09-30T18:00:43;96574.59;;;12.19;60.79
42847;BME280;28495;49.916;14.536;2022-09-30T18:06:06;96578.75;;;12.30;60.94
42847;BME280;28495;49.916;14.536;2022-09-30T18:11:27;96575.16;;;12.31;61.47
42847;BME280;28495;49.916;14.536;2022-09-30T18:16:51;96574.94;;;12.51;61.39
42847;BME280;28495;49.916;14.536;2022-09-30T18:22:12;96575.53;;;12.37;61.11
42847;BME280;28495;49.916;14.536;2022-09-30T18:27:33;96570.34;;;12.18;61.16
42847;BME280;28495;49.916;14.536;2022-09-30T18:32:54;96570.44;;;12.35;61.74
42847;BME280;28495;49.916;14.536;2022-09-30T18:38:15;96552.84;;;12.45;61.54
42847;BME280;28495;49.916;14.536;2022-09-30T18:43:36;96550.69;;;12.41;61.46
42847;BME280;28495;49.916;14.536;2022-09-30T18:48:57;96561.34;;;12.13;61.01
42847;BME280;28495;49.916;14.536;2022-09-30T18:54:18;96570.47;;;12.09;61.48
42847;BME280;28495;49.916;14.536;2022-09-30T18:59:39;96568.38;;;12.12;61.48
42847;BME280;28495;49.916;14.536;2022-09-30T19:05:00;96564.59;;;12.07;61.64
42847;BME280;28495;49.916;14.536;2022-09-30T19:10:21;96555.16;;;11.96;61.41
42847;BME280;28495;49.916;14.536;2022-09-30T19:15:44;96551.78;;;11.77;61.45
42847;BME280;28495;49.916;14.536;2022-09-30T19:21:08;96538.38;;;11.72;61.81
42847;BME280;28495;49.916;14.536;2022-09-30T19:26:32;96539.19;;;11.72;62.13
42847;BME280;28495;49.916;14.536;2022-09-30T19:31:55;96534.63;;;11.74;61.93
42847;BME280;28495;49.916;14.536;2022-09-30T19:37:20;96535.59;;;11.73;62.17
42847;BME280;28495;49.916;14.536;2022-09-30T19:42:48;96552.53;;;11.69;62.49
42847;BME280;28495;49.916;14.536;2022-09-30T19:48:09;96545.59;;;11.78;62.42
42847;BME280;28495;49.916;14.536;2022-09-30T19:53:35;96538.00;;;11.67;62.26
42847;BME280;28495;49.916;14.536;2022-09-30T19:59:01;96536.00;;;11.61;62.28
42847;BME280;28495;49.916;14.536;2022-09-30T20:04:22;96541.38;;;11.59;62.49
42847;BME280;28495;49.916;14.536;2022-09-30T20:09:45;96537.38;;;11.47;62.75
42847;BME280;28495;49.916;14.536;2022-09-30T20:15:09;96548.00;;;11.71;63.14
42847;BME280;28495;49.916;14.536;2022-09-30T20:21:14;96538.38;;;11.72;62.87
42847;BME280;28495;49.916;14.536;2022-09-30T20:26:39;96540.75;;;11.65;63.27
42847;BME280;28495;49.916;14.536;2022-09-30T20:32:00;96533.34;;;11.79;63.58
42847;BME280;28495;49.916;14.536;2022-09-30T20:37:21;96536.06;;;11.69;63.29
42847;BME280;28495;49.916;14.536;2022-09-30T20:42:42;96529.00;;;11.61;63.44
42847;BME280;28495;49.916;14.536;2022-09-30T20:48:03;96526.47;;;11.51;63.39
42847;BME280;28495;49.916;14.536;2022-09-30T20:53:24;96523.47;;;11.46;63.32
42847;BME280;28495;49.916;14.536;2022-09-30T20:58:45;96521.25;;;11.51;63.27
42847;BME280;28495;49.916;14.536;2022-09-30T21:04:06;96515.41;;;11.57;63.35
42847;BME280;28495;49.916;14.536;2022-09-30T21:09:28;96517.78;;;11.51;63.52
42847;BME280;28495;49.916;14.536;2022-09-30T21:14:48;96522.59;;;11.37;63.12
42847;BME280;28495;49.916;14.536;2022-09-30T21:20:09;96537.91;;;11.14;63.30
42847;BME280;28495;49.916;14.536;2022-09-30T21:25:30;96529.91;;;10.97;63.14
42847;BME280;28495;49.916;14.536;2022-09-30T21:30:52;96544.69;;;10.89;63.62
42847;BME280;28495;49.916;14.536;2022-09-30T21:36:13;96547.75;;;11.02;63.59
42847;BME280;28495;49.916;14.536;2022-09-30T21:41:34;96540.84;;;11.11;63.48
42847;BME280;28495;49.916;14.536;2022-09-30T21:47:03;96546.94;;;11.02;63.62
42847;BME280;28495;49.916;14.536;2022-09-30T21:52:24;96555.94;;;10.89;63.17
42847;BME280;28495;49.916;14.536;2022-09-30T21:57:51;96556.16;;;10.96;63.08
42847;BME280;28495;49.916;14.536;2022-09-30T22:03:12;96566.59;;;10.96;63.39
42847;BME280;28495;49.916;14.536;2022-09-30T22:08:37;96554.78;;;10.56;62.81
42847;BME280;28495;49.916;14.536;2022-09-30T22:14:01;96552.50;;;10.33;63.38
42847;BME280;28495;49.916;14.536;2022-09-30T22:19:22;96551.53;;;10.34;63.34
42847;BME280;28495;49.916;14.536;2022-09-30T22:24:43;96554.59;;;10.29;63.34
42847;BME280;28495;49.916;14.536;2022-09-30T22:30:04;96565.81;;;10.40;63.54
42847;BME280;28495;49.916;14.536;2022-09-30T22:35:26;96561.53;;;10.48;63.15
42847;BME280;28495;49.916;14.536;2022-09-30T22:41:05;96561.31;;;10.60;63.48
42847;BME280;28495;49.916;14.536;2022-09-30T22:46:26;96557.50;;;10.54;63.12
42847;BME280;28495;49.916;14.536;2022-09-30T22:51:53;96550.25;;;10.58;63.17
42847;BME280;28495;49.916;14.536;2022-09-30T22:57:14;96567.97;;;10.44;62.75
42847;BME280;28495;49.916;14.536;2022-09-30T23:02:35;96577.88;;;10.31;63.21
42847;BME280;28495;49.916;14.536;2022-09-30T23:07:56;96575.00;;;10.34;63.18
42847;BME280;28495;49.916;14.536;2022-09-30T23:13:17;96578.56;;;10.33;63.24
42847;BME280;28495;49.916;14.536;2022-09-30T23:18:42;96589.59;;;10.17;63.09
42847;BME280;28495;49.916;14.536;2022-09-30T23:24:06;96590.19;;;10.01;63.22
42847;BME280;28495;49.916;14.536;2022-09-30T23:29:26;96600.59;;;10.01;63.73
42847;BME280;28495;49.916;14.536;2022-09-30T23:34:47;96597.59;;;10.05;63.63
42847;BME280;28495;49.916;14.536;2022-09-30T23:40:08;96598.69;;;10.03;63.42
42847;BME280;28495;49.916;14.536;2022-09-30T23:45:29;96596.91;;;10.13;63.81
42847;BME280;28495;49.916;14.536;2022-09-30T23:50:50;96599.34;;;10.15;63.60
42847;BME280;28495;49.916;14.536;2022-09-30T23:56:14;96603.84;;;10.22;63.72
